sensor_id;sensor_type;location;lat;lon;timestamp;P1;durP1;ratioP1;P2;durP2;ratioP2
16957;SDS011;8595;52.542;11.974;2024-02-16T00:01:42;8.02;;;7.07;;
16957;SDS011;8595;52.542;11.974;2024-02-16T00:04:09;10.35;;;7.15;;
16957;SDS011;8595;52.542;11.974;2024-02-16T00:06:36;8.07;;;7.15;;
16957;SDS011;8595;52.542;11.974;2024-02-16T00:09:05;8.27;;;7.32;;
16957;SDS011;8595;52.542;11.974;2024-02-16T00:11:32;8.70;;;7.00;;
16957;SDS011;8595;52.542;11.974;2024-02-16T00:14:00;10.23;;;7.60;;
16957;SDS011;8595;52.542;11.974;2024-02-16T00:16:27;8.75;;;7.15;;
16957;SDS011;8595;52.542;11.974;2024-02-16T00:18:54;10.55;;;7.30;;
16957;SDS011;8595;52.542;11.974;2024-02-16T00:21:21;9.32;;;8.10;;
16957;SDS011;8595;52.542;11.974;2024-02-16T00:23:48;9.15;;;8.10;;
16957;SDS011;8595;52.542;11.974;2024-02-16T00:26:17;9.68;;;7.57;;
16957;SDS011;8595;52.542;11.974;2024-02-16T00:28:44;8.70;;;7.50;;
16957;SDS011;8595;52.542;11.974;2024-02-16T00:31:11;12.85;;;8.30;;
16957;SDS011;8595;52.542;11.974;2024-02-16T00:33:39;8.13;;;6.53;;
16957;SDS011;8595;52.542;11.974;2024-02-16T00:36:06;10.15;;;7.38;;
16957;SDS011;8595;52.542;11.974;2024-02-16T00:38:35;11.93;;;6.82;;
16957;SDS011;8595;52.542;11.974;2024-02-16T00:41:02;11.95;;;7.80;;
16957;SDS011;8595;52.542;11.974;2024-02-16T00:43:31;10.65;;;7.82;;
16957;SDS011;8595;52.542;11.974;2024-02-16T00:45:58;15.18;;;7.25;;
16957;SDS011;8595;52.542;11.974;2024-02-16T00:48:25;12.30;;;7.38;;
16957;SDS011;8595;52.542;11.974;2024-02-16T00:50:52;9.85;;;7.82;;
16957;SDS011;8595;52.542;11.974;2024-02-16T00:53:18;10.13;;;8.45;;
16957;SDS011;8595;52.542;11.974;2024-02-16T00:55:45;10.60;;;8.57;;
16957;SDS011;8595;52.542;11.974;2024-02-16T00:58:12;10.43;;;7.57;;
16957;SDS011;8595;52.542;11.974;2024-02-16T01:00:41;11.68;;;7.45;;
16957;SDS011;8595;52.542;11.974;2024-02-16T01:03:08;10.02;;;7.78;;
16957;SDS011;8595;52.542;11.974;2024-02-16T01:05:35;9.52;;;7.80;;
16957;SDS011;8595;52.542;11.974;2024-02-16T01:08:02;12.38;;;8.20;;
16957;SDS011;8595;52.542;11.974;2024-02-16T01:10:30;10.32;;;7.07;;
16957;SDS011;8595;52.542;11.974;2024-02-16T01:12:57;9.10;;;7.82;;
16957;SDS011;8595;52.542;11.974;2024-02-16T01:15:24;10.57;;;7.93;;
16957;SDS011;8595;52.542;11.974;2024-02-16T01:17:53;12.23;;;8.37;;
16957;SDS011;8595;52.542;11.974;2024-02-16T01:20:20;12.57;;;8.57;;
16957;SDS011;8595;52.542;11.974;2024-02-16T01:22:47;10.00;;;8.98;;
16957;SDS011;8595;52.542;11.974;2024-02-16T01:25:14;12.10;;;8.70;;
16957;SDS011;8595;52.542;11.974;2024-02-16T01:27:41;12.02;;;7.80;;
16957;SDS011;8595;52.542;11.974;2024-02-16T01:30:08;10.63;;;8.83;;
16957;SDS011;8595;52.542;11.974;2024-02-16T01:32:36;10.40;;;9.25;;
16957;SDS011;8595;52.542;11.974;2024-02-16T01:35:05;12.65;;;9.18;;
16957;SDS011;8595;52.542;11.974;2024-02-16T01:37:32;10.52;;;9.40;;
16957;SDS011;8595;52.542;11.974;2024-02-16T01:39:59;12.35;;;8.95;;
16957;SDS011;8595;52.542;11.974;2024-02-16T01:42:28;10.48;;;8.50;;
16957;SDS011;8595;52.542;11.974;2024-02-16T01:44:56;10.15;;;9.15;;
16957;SDS011;8595;52.542;11.974;2024-02-16T01:47:22;11.43;;;8.63;;
16957;SDS011;8595;52.542;11.974;2024-02-16T01:49:50;10.40;;;7.93;;
16957;SDS011;8595;52.542;11.974;2024-02-16T01:52:18;8.70;;;7.28;;
16957;SDS011;8595;52.542;11.974;2024-02-16T01:54:45;14.70;;;8.35;;
16957;SDS011;8595;52.542;11.974;2024-02-16T01:57:12;12.30;;;8.88;;
16957;SDS011;8595;52.542;11.974;2024-02-16T01:59:40;12.25;;;8.50;;
16957;SDS011;8595;52.542;11.974;2024-02-16T02:02:07;9.90;;;7.10;;
16957;SDS011;8595;52.542;11.974;2024-02-16T02:04:34;11.70;;;7.82;;
16957;SDS011;8595;52.542;11.974;2024-02-16T02:07:10;11.77;;;7.97;;
16957;SDS011;8595;52.542;11.974;2024-02-16T02:09:39;9.85;;;7.57;;
16957;SDS011;8595;52.542;11.974;2024-02-16T02:12:06;11.23;;;7.70;;
16957;SDS011;8595;52.542;11.974;2024-02-16T02:14:34;8.55;;;7.05;;
16957;SDS011;8595;52.542;11.974;2024-02-16T02:17:01;10.70;;;7.80;;
16957;SDS011;8595;52.542;11.974;2024-02-16T02:19:29;12.02;;;8.13;;
16957;SDS011;8595;52.542;11.974;2024-02-16T02:21:56;12.88;;;8.52;;
16957;SDS011;8595;52.542;11.974;2024-02-16T02:24:25;11.90;;;8.70;;
16957;SDS011;8595;52.542;11.974;2024-02-16T02:26:52;10.00;;;7.20;;
16957;SDS011;8595;52.542;11.974;2024-02-16T02:29:19;12.45;;;8.05;;
16957;SDS011;8595;52.542;11.974;2024-02-16T02:31:46;8.77;;;7.63;;
16957;SDS011;8595;52.542;11.974;2024-02-16T02:34:13;14.65;;;9.10;;
16957;SDS011;8595;52.542;11.974;2024-02-16T02:36:40;9.23;;;8.07;;
16957;SDS011;8595;52.542;11.974;2024-02-16T02:39:07;11.57;;;9.05;;
16957;SDS011;8595;52.542;11.974;2024-02-16T02:41:36;13.00;;;8.20;;
16957;SDS011;8595;52.542;11.974;2024-02-16T02:44:03;11.77;;;9.25;;
16957;SDS011;8595;52.542;11.974;2024-02-16T02:46:30;9.65;;;8.63;;
16957;SDS011;8595;52.542;11.974;2024-02-16T02:48:57;11.38;;;8.32;;
16957;SDS011;8595;52.542;11.974;2024-02-16T02:51:24;9.65;;;8.68;;
16957;SDS011;8595;52.542;11.974;2024-02-16T02:53:52;11.68;;;7.47;;
16957;SDS011;8595;52.542;11.974;2024-02-16T02:56:19;13.27;;;8.77;;
16957;SDS011;8595;52.542;11.974;2024-02-16T02:58:47;11.15;;;7.80;;
16957;SDS011;8595;52.542;11.974;2024-02-16T03:01:14;13.63;;;8.00;;
16957;SDS011;8595;52.542;11.974;2024-02-16T03:03:41;14.68;;;8.75;;
16957;SDS011;8595;52.542;11.974;2024-02-16T03:06:09;15.35;;;8.95;;
16957;SDS011;8595;52.542;11.974;2024-02-16T03:08:35;10.02;;;8.63;;
16957;SDS011;8595;52.542;11.974;2024-02-16T03:11:02;13.40;;;9.63;;
16957;SDS011;8595;52.542;11.974;2024-02-16T03:13:30;11.25;;;7.82;;
16957;SDS011;8595;52.542;11.974;2024-02-16T03:15:59;12.03;;;7.83;;
16957;SDS011;8595;52.542;11.974;2024-02-16T03:18:28;9.48;;;8.15;;
16957;SDS011;8595;52.542;11.974;2024-02-16T03:20:55;10.98;;;8.90;;
16957;SDS011;8595;52.542;11.974;2024-02-16T03:23:23;12.75;;;8.73;;
16957;SDS011;8595;52.542;11.974;2024-02-16T03:25:50;15.60;;;9.27;;
16957;SDS011;8595;52.542;11.974;2024-02-16T03:28:17;10.90;;;8.30;;
16957;SDS011;8595;52.542;11.974;2024-02-16T03:30:44;10.57;;;9.10;;
16957;SDS011;8595;52.542;11.974;2024-02-16T03:33:13;11.30;;;8.65;;
16957;SDS011;8595;52.542;11.974;2024-02-16T03:35:40;9.63;;;8.32;;
16957;SDS011;8595;52.542;11.974;2024-02-16T03:38:07;11.65;;;8.70;;
16957;SDS011;8595;52.542;11.974;2024-02-16T03:40:34;11.35;;;8.55;;
16957;SDS011;8595;52.542;11.974;2024-02-16T03:43:02;9.80;;;8.25;;
16957;SDS011;8595;52.542;11.974;2024-02-16T03:45:29;9.60;;;8.60;;
16957;SDS011;8595;52.542;11.974;2024-02-16T03:47:56;9.38;;;8.25;;
16957;SDS011;8595;52.542;11.974;2024-02-16T03:50:24;12.82;;;7.88;;
16957;SDS011;8595;52.542;11.974;2024-02-16T03:52:52;10.60;;;8.23;;
16957;SDS011;8595;52.542;11.974;2024-02-16T03:55:19;11.02;;;8.90;;
16957;SDS011;8595;52.542;11.974;2024-02-16T03:57:46;11.65;;;8.45;;
16957;SDS011;8595;52.542;11.974;2024-02-16T04:00:13;10.77;;;8.48;;
16957;SDS011;8595;52.542;11.974;2024-02-16T04:02:40;10.48;;;9.05;;
16957;SDS011;8595;52.542;11.974;2024-02-16T04:05:08;8.98;;;7.85;;
16957;SDS011;8595;52.542;11.974;2024-02-16T04:07:36;9.10;;;7.88;;
16957;SDS011;8595;52.542;11.974;2024-02-16T04:10:04;11.70;;;10.48;;
16957;SDS011;8595;52.542;11.974;2024-02-16T04:12:32;11.70;;;9.03;;
16957;SDS011;8595;52.542;11.974;2024-02-16T04:14:58;13.95;;;8.55;;
16957;SDS011;8595;52.542;11.974;2024-02-16T04:17:25;10.63;;;9.15;;
16957;SDS011;8595;52.542;11.974;2024-02-16T04:19:52;12.87;;;9.40;;
16957;SDS011;8595;52.542;11.974;2024-02-16T04:22:19;15.05;;;8.95;;
16957;SDS011;8595;52.542;11.974;2024-02-16T04:24:48;12.75;;;8.88;;
16957;SDS011;8595;52.542;11.974;2024-02-16T04:27:15;9.43;;;8.50;;
16957;SDS011;8595;52.542;11.974;2024-02-16T04:29:42;10.13;;;7.53;;
16957;SDS011;8595;52.542;11.974;2024-02-16T04:32:09;12.45;;;9.80;;
16957;SDS011;8595;52.542;11.974;2024-02-16T04:34:36;9.68;;;7.97;;
16957;SDS011;8595;52.542;11.974;2024-02-16T04:37:03;11.57;;;8.57;;
16957;SDS011;8595;52.542;11.974;2024-02-16T04:39:30;10.13;;;8.05;;
16957;SDS011;8595;52.542;11.974;2024-02-16T04:41:58;10.10;;;8.18;;
16957;SDS011;8595;52.542;11.974;2024-02-16T04:44:25;10.80;;;8.15;;
16957;SDS011;8595;52.542;11.974;2024-02-16T04:46:52;13.48;;;8.55;;
16957;SDS011;8595;52.542;11.974;2024-02-16T04:49:19;15.63;;;8.90;;
16957;SDS011;8595;52.542;11.974;2024-02-16T04:51:46;10.15;;;7.95;;
16957;SDS011;8595;52.542;11.974;2024-02-16T04:54:13;11.13;;;8.32;;
16957;SDS011;8595;52.542;11.974;2024-02-16T04:56:40;14.93;;;9.13;;
16957;SDS011;8595;52.542;11.974;2024-02-16T04:59:09;12.90;;;10.02;;
16957;SDS011;8595;52.542;11.974;2024-02-16T05:01:36;11.48;;;8.32;;
16957;SDS011;8595;52.542;11.974;2024-02-16T05:04:03;16.65;;;8.68;;
16957;SDS011;8595;52.542;11.974;2024-02-16T05:06:30;9.35;;;8.23;;
16957;SDS011;8595;52.542;11.974;2024-02-16T05:08:57;10.18;;;8.45;;
16957;SDS011;8595;52.542;11.974;2024-02-16T05:11:24;9.33;;;7.57;;
16957;SDS011;8595;52.542;11.974;2024-02-16T05:13:52;10.20;;;7.75;;
16957;SDS011;8595;52.542;11.974;2024-02-16T05:16:21;11.85;;;8.02;;
16957;SDS011;8595;52.542;11.974;2024-02-16T05:18:49;9.55;;;7.88;;
16957;SDS011;8595;52.542;11.974;2024-02-16T05:21:16;9.23;;;7.72;;
16957;SDS011;8595;52.542;11.974;2024-02-16T05:23:43;9.88;;;8.18;;
16957;SDS011;8595;52.542;11.974;2024-02-16T05:26:11;12.38;;;8.73;;
16957;SDS011;8595;52.542;11.974;2024-02-16T05:28:38;13.70;;;9.70;;
16957;SDS011;8595;52.542;11.974;2024-02-16T05:31:13;11.83;;;9.60;;
16957;SDS011;8595;52.542;11.974;2024-02-16T05:33:43;10.43;;;9.40;;
16957;SDS011;8595;52.542;11.974;2024-02-16T05:36:11;9.38;;;8.48;;
16957;SDS011;8595;52.542;11.974;2024-02-16T05:38:38;11.68;;;8.73;;
16957;SDS011;8595;52.542;11.974;2024-02-16T05:41:08;9.57;;;8.50;;
16957;SDS011;8595;52.542;11.974;2024-02-16T05:43:36;12.17;;;8.53;;
16957;SDS011;8595;52.542;11.974;2024-02-16T05:46:03;12.32;;;8.70;;
16957;SDS011;8595;52.542;11.974;2024-02-16T05:48:32;12.82;;;8.20;;
16957;SDS011;8595;52.542;11.974;2024-02-16T05:51:04;10.30;;;8.20;;
16957;SDS011;8595;52.542;11.974;2024-02-16T05:53:31;10.68;;;9.07;;
16957;SDS011;8595;52.542;11.974;2024-02-16T05:55:58;11.35;;;8.32;;
16957;SDS011;8595;52.542;11.974;2024-02-16T05:58:25;10.50;;;8.63;;
16957;SDS011;8595;52.542;11.974;2024-02-16T06:00:54;11.52;;;8.57;;
16957;SDS011;8595;52.542;11.974;2024-02-16T06:03:21;11.35;;;8.85;;
16957;SDS011;8595;52.542;11.974;2024-02-16T06:05:48;12.23;;;8.48;;
16957;SDS011;8595;52.542;11.974;2024-02-16T06:08:16;13.57;;;9.25;;
16957;SDS011;8595;52.542;11.974;2024-02-16T06:10:44;9.52;;;8.55;;
16957;SDS011;8595;52.542;11.974;2024-02-16T06:13:16;11.32;;;9.05;;
16957;SDS011;8595;52.542;11.974;2024-02-16T06:15:44;11.30;;;8.98;;
16957;SDS011;8595;52.542;11.974;2024-02-16T06:18:12;14.23;;;9.13;;
16957;SDS011;8595;52.542;11.974;2024-02-16T06:20:39;10.00;;;8.20;;
16957;SDS011;8595;52.542;11.974;2024-02-16T06:23:06;11.88;;;9.50;;
16957;SDS011;8595;52.542;11.974;2024-02-16T06:25:35;10.75;;;9.57;;
16957;SDS011;8595;52.542;11.974;2024-02-16T06:28:03;12.70;;;8.85;;
16957;SDS011;8595;52.542;11.974;2024-02-16T06:30:30;9.45;;;8.38;;
16957;SDS011;8595;52.542;11.974;2024-02-16T06:32:58;9.63;;;8.60;;
16957;SDS011;8595;52.542;11.974;2024-02-16T06:35:25;9.70;;;7.97;;
16957;SDS011;8595;52.542;11.974;2024-02-16T06:37:52;12.38;;;8.68;;
16957;SDS011;8595;52.542;11.974;2024-02-16T06:40:19;10.70;;;8.18;;
16957;SDS011;8595;52.542;11.974;2024-02-16T06:42:48;12.27;;;8.25;;
16957;SDS011;8595;52.542;11.974;2024-02-16T06:45:15;11.25;;;8.63;;
16957;SDS011;8595;52.542;11.974;2024-02-16T06:47:42;11.65;;;7.80;;
16957;SDS011;8595;52.542;11.974;2024-02-16T06:50:10;11.95;;;7.72;;
16957;SDS011;8595;52.542;11.974;2024-02-16T06:52:37;10.10;;;7.75;;
16957;SDS011;8595;52.542;11.974;2024-02-16T06:55:04;8.70;;;7.80;;
16957;SDS011;8595;52.542;11.974;2024-02-16T06:57:33;8.88;;;7.55;;
16957;SDS011;8595;52.542;11.974;2024-02-16T07:00:01;13.35;;;6.95;;
16957;SDS011;8595;52.542;11.974;2024-02-16T07:02:30;11.15;;;7.10;;
16957;SDS011;8595;52.542;11.974;2024-02-16T07:04:57;10.20;;;6.63;;
16957;SDS011;8595;52.542;11.974;2024-02-16T07:07:24;10.07;;;6.80;;
16957;SDS011;8595;52.542;11.974;2024-02-16T07:09:51;8.50;;;6.80;;
16957;SDS011;8595;52.542;11.974;2024-02-16T07:12:18;10.85;;;8.05;;
16957;SDS011;8595;52.542;11.974;2024-02-16T07:14:46;11.68;;;7.80;;
16957;SDS011;8595;52.542;11.974;2024-02-16T07:17:16;9.38;;;6.70;;
16957;SDS011;8595;52.542;11.974;2024-02-16T07:19:43;6.97;;;6.28;;
16957;SDS011;8595;52.542;11.974;2024-02-16T07:22:13;10.73;;;7.68;;
16957;SDS011;8595;52.542;11.974;2024-02-16T07:24:41;9.68;;;6.60;;
16957;SDS011;8595;52.542;11.974;2024-02-16T07:27:08;8.43;;;6.00;;
16957;SDS011;8595;52.542;11.974;2024-02-16T07:29:37;9.73;;;6.80;;
16957;SDS011;8595;52.542;11.974;2024-02-16T07:32:04;7.88;;;5.60;;
16957;SDS011;8595;52.542;11.974;2024-02-16T07:34:33;7.80;;;6.80;;
16957;SDS011;8595;52.542;11.974;2024-02-16T07:37:00;10.25;;;7.50;;
16957;SDS011;8595;52.542;11.974;2024-02-16T07:39:27;8.15;;;6.85;;
16957;SDS011;8595;52.542;11.974;2024-02-16T07:41:54;9.88;;;7.05;;
16957;SDS011;8595;52.542;11.974;2024-02-16T07:44:21;11.65;;;7.50;;
16957;SDS011;8595;52.542;11.974;2024-02-16T07:46:48;10.25;;;6.60;;
16957;SDS011;8595;52.542;11.974;2024-02-16T07:49:15;9.45;;;5.70;;
16957;SDS011;8595;52.542;11.974;2024-02-16T07:51:44;10.15;;;5.93;;
16957;SDS011;8595;52.542;11.974;2024-02-16T07:54:11;8.05;;;6.28;;
16957;SDS011;8595;52.542;11.974;2024-02-16T07:56:39;6.82;;;5.88;;
16957;SDS011;8595;52.542;11.974;2024-02-16T07:59:06;10.57;;;5.93;;
16957;SDS011;8595;52.542;11.974;2024-02-16T08:01:33;6.35;;;5.68;;
16957;SDS011;8595;52.542;11.974;2024-02-16T08:04:00;7.13;;;5.90;;
16957;SDS011;8595;52.542;11.974;2024-02-16T08:06:27;6.72;;;5.90;;
16957;SDS011;8595;52.542;11.974;2024-02-16T08:08:55;9.23;;;6.30;;
16957;SDS011;8595;52.542;11.974;2024-02-16T08:11:22;7.07;;;5.50;;
16957;SDS011;8595;52.542;11.974;2024-02-16T08:13:49;7.88;;;5.82;;
16957;SDS011;8595;52.542;11.974;2024-02-16T08:16:16;6.45;;;5.53;;
16957;SDS011;8595;52.542;11.974;2024-02-16T08:18:43;7.85;;;4.78;;
16957;SDS011;8595;52.542;11.974;2024-02-16T08:21:10;7.95;;;4.90;;
16957;SDS011;8595;52.542;11.974;2024-02-16T08:23:37;7.45;;;5.50;;
16957;SDS011;8595;52.542;11.974;2024-02-16T08:26:06;6.60;;;5.32;;
16957;SDS011;8595;52.542;11.974;2024-02-16T08:28:33;8.55;;;5.15;;
16957;SDS011;8595;52.542;11.974;2024-02-16T08:31:00;6.13;;;5.40;;
16957;SDS011;8595;52.542;11.974;2024-02-16T08:33:27;6.28;;;5.13;;
16957;SDS011;8595;52.542;11.974;2024-02-16T08:35:54;5.68;;;4.55;;
16957;SDS011;8595;52.542;11.974;2024-02-16T08:38:21;8.02;;;5.95;;
16957;SDS011;8595;52.542;11.974;2024-02-16T08:40:48;8.85;;;5.68;;
16957;SDS011;8595;52.542;11.974;2024-02-16T08:43:18;9.18;;;5.25;;
16957;SDS011;8595;52.542;11.974;2024-02-16T08:45:45;5.50;;;4.63;;
16957;SDS011;8595;52.542;11.974;2024-02-16T08:48:12;5.72;;;4.78;;
16957;SDS011;8595;52.542;11.974;2024-02-16T08:50:39;5.82;;;4.32;;
16957;SDS011;8595;52.542;11.974;2024-02-16T08:53:06;5.15;;;4.35;;
16957;SDS011;8595;52.542;11.974;2024-02-16T08:55:35;5.80;;;4.85;;
16957;SDS011;8595;52.542;11.974;2024-02-16T08:58:02;6.53;;;4.55;;
16957;SDS011;8595;52.542;11.974;2024-02-16T09:00:30;7.03;;;4.88;;
16957;SDS011;8595;52.542;11.974;2024-02-16T09:02:57;7.63;;;4.53;;
16957;SDS011;8595;52.542;11.974;2024-02-16T09:05:27;11.95;;;5.38;;
16957;SDS011;8595;52.542;11.974;2024-02-16T09:07:54;7.90;;;4.60;;
16957;SDS011;8595;52.542;11.974;2024-02-16T09:10:21;7.68;;;4.82;;
16957;SDS011;8595;52.542;11.974;2024-02-16T09:12:48;6.40;;;4.30;;
16957;SDS011;8595;52.542;11.974;2024-02-16T09:15:17;5.25;;;4.25;;
16957;SDS011;8595;52.542;11.974;2024-02-16T09:17:45;12.27;;;5.00;;
16957;SDS011;8595;52.542;11.974;2024-02-16T09:20:12;14.77;;;5.50;;
16957;SDS011;8595;52.542;11.974;2024-02-16T09:22:40;8.00;;;4.72;;
16957;SDS011;8595;52.542;11.974;2024-02-16T09:25:07;5.20;;;4.70;;
16957;SDS011;8595;52.542;11.974;2024-02-16T09:27:35;6.47;;;4.80;;
16957;SDS011;8595;52.542;11.974;2024-02-16T09:30:05;6.32;;;4.78;;
16957;SDS011;8595;52.542;11.974;2024-02-16T09:32:36;5.70;;;4.38;;
16957;SDS011;8595;52.542;11.974;2024-02-16T09:35:06;4.65;;;4.18;;
16957;SDS011;8595;52.542;11.974;2024-02-16T09:37:34;5.63;;;4.97;;
16957;SDS011;8595;52.542;11.974;2024-02-16T09:40:02;10.20;;;5.63;;
16957;SDS011;8595;52.542;11.974;2024-02-16T09:42:30;7.72;;;4.53;;
16957;SDS011;8595;52.542;11.974;2024-02-16T09:44:59;6.45;;;4.88;;
16957;SDS011;8595;52.542;11.974;2024-02-16T09:47:26;5.63;;;5.13;;
16957;SDS011;8595;52.542;11.974;2024-02-16T09:49:57;6.93;;;4.43;;
16957;SDS011;8595;52.542;11.974;2024-02-16T09:52:26;9.32;;;4.80;;
16957;SDS011;8595;52.542;11.974;2024-02-16T09:54:53;4.10;;;3.65;;
16957;SDS011;8595;52.542;11.974;2024-02-16T09:57:20;13.68;;;4.57;;
16957;SDS011;8595;52.542;11.974;2024-02-16T09:59:47;4.82;;;4.20;;
16957;SDS011;8595;52.542;11.974;2024-02-16T10:02:15;5.90;;;4.30;;
16957;SDS011;8595;52.542;11.974;2024-02-16T10:04:42;5.18;;;4.68;;
16957;SDS011;8595;52.542;11.974;2024-02-16T10:07:09;7.43;;;3.90;;
16957;SDS011;8595;52.542;11.974;2024-02-16T10:09:38;6.55;;;3.67;;
16957;SDS011;8595;52.542;11.974;2024-02-16T10:12:05;5.20;;;3.90;;
16957;SDS011;8595;52.542;11.974;2024-02-16T10:14:33;10.20;;;4.97;;
16957;SDS011;8595;52.542;11.974;2024-02-16T10:17:00;10.10;;;5.13;;
16957;SDS011;8595;52.542;11.974;2024-02-16T10:19:27;7.22;;;4.60;;
16957;SDS011;8595;52.542;11.974;2024-02-16T10:22:05;5.55;;;3.75;;
16957;SDS011;8595;52.542;11.974;2024-02-16T10:24:33;4.93;;;4.38;;
16957;SDS011;8595;52.542;11.974;2024-02-16T10:27:01;6.43;;;4.20;;
16957;SDS011;8595;52.542;11.974;2024-02-16T10:29:29;6.68;;;4.88;;
16957;SDS011;8595;52.542;11.974;2024-02-16T10:31:59;8.95;;;4.50;;
16957;SDS011;8595;52.542;11.974;2024-02-16T10:34:25;6.35;;;4.18;;
16957;SDS011;8595;52.542;11.974;2024-02-16T10:36:55;6.47;;;4.38;;
16957;SDS011;8595;52.542;11.974;2024-02-16T10:39:26;5.43;;;3.58;;
16957;SDS011;8595;52.542;11.974;2024-02-16T10:41:54;4.80;;;3.63;;
16957;SDS011;8595;52.542;11.974;2024-02-16T10:44:25;6.38;;;3.40;;
16957;SDS011;8595;52.542;11.974;2024-02-16T10:46:54;7.03;;;3.45;;
16957;SDS011;8595;52.542;11.974;2024-02-16T10:49:22;3.17;;;2.88;;
16957;SDS011;8595;52.542;11.974;2024-02-16T10:51:51;6.05;;;2.88;;
16957;SDS011;8595;52.542;11.974;2024-02-16T10:54:22;3.95;;;2.95;;
16957;SDS011;8595;52.542;11.974;2024-02-16T10:56:53;4.82;;;3.30;;
16957;SDS011;8595;52.542;11.974;2024-02-16T10:59:21;6.50;;;3.10;;
16957;SDS011;8595;52.542;11.974;2024-02-16T11:01:58;4.40;;;3.25;;
16957;SDS011;8595;52.542;11.974;2024-02-16T11:04:35;6.18;;;3.08;;
16957;SDS011;8595;52.542;11.974;2024-02-16T11:07:10;4.00;;;3.05;;
16957;SDS011;8595;52.542;11.974;2024-02-16T11:09:38;5.25;;;3.08;;
16957;SDS011;8595;52.542;11.974;2024-02-16T11:12:06;5.18;;;3.20;;
16957;SDS011;8595;52.542;11.974;2024-02-16T11:14:37;7.70;;;2.90;;
16957;SDS011;8595;52.542;11.974;2024-02-16T11:17:09;4.32;;;2.75;;
16957;SDS011;8595;52.542;11.974;2024-02-16T11:19:37;3.42;;;3.10;;
16957;SDS011;8595;52.542;11.974;2024-02-16T11:22:06;9.68;;;3.28;;
16957;SDS011;8595;52.542;11.974;2024-02-16T11:24:34;4.22;;;2.67;;
16957;SDS011;8595;52.542;11.974;2024-02-16T11:27:03;3.80;;;3.40;;
16957;SDS011;8595;52.542;11.974;2024-02-16T11:29:31;4.35;;;3.47;;
16957;SDS011;8595;52.542;11.974;2024-02-16T11:32:00;7.32;;;3.17;;
16957;SDS011;8595;52.542;11.974;2024-02-16T11:34:29;6.05;;;3.20;;
16957;SDS011;8595;52.542;11.974;2024-02-16T11:36:57;5.78;;;3.28;;
16957;SDS011;8595;52.542;11.974;2024-02-16T11:39:24;4.47;;;3.28;;
16957;SDS011;8595;52.542;11.974;2024-02-16T11:42:01;6.25;;;3.70;;
16957;SDS011;8595;52.542;11.974;2024-02-16T11:44:29;7.00;;;3.72;;
16957;SDS011;8595;52.542;11.974;2024-02-16T11:46:58;4.63;;;3.20;;
16957;SDS011;8595;52.542;11.974;2024-02-16T11:49:25;5.35;;;3.75;;
16957;SDS011;8595;52.542;11.974;2024-02-16T11:51:54;8.35;;;4.20;;
16957;SDS011;8595;52.542;11.974;2024-02-16T11:54:21;5.45;;;3.72;;
16957;SDS011;8595;52.542;11.974;2024-02-16T11:56:48;5.35;;;3.15;;
16957;SDS011;8595;52.542;11.974;2024-02-16T11:59:16;4.25;;;3.63;;
16957;SDS011;8595;52.542;11.974;2024-02-16T12:01:51;5.80;;;3.08;;
16957;SDS011;8595;52.542;11.974;2024-02-16T12:04:20;4.40;;;3.10;;
16957;SDS011;8595;52.542;11.974;2024-02-16T12:06:47;3.72;;;2.78;;
16957;SDS011;8595;52.542;11.974;2024-02-16T12:09:18;4.28;;;3.33;;
16957;SDS011;8595;52.542;11.974;2024-02-16T12:11:46;4.03;;;3.00;;
16957;SDS011;8595;52.542;11.974;2024-02-16T12:14:14;3.75;;;3.22;;
16957;SDS011;8595;52.542;11.974;2024-02-16T12:16:41;3.85;;;3.08;;
16957;SDS011;8595;52.542;11.974;2024-02-16T12:19:08;4.90;;;3.25;;
16957;SDS011;8595;52.542;11.974;2024-02-16T12:21:38;3.50;;;3.03;;
16957;SDS011;8595;52.542;11.974;2024-02-16T12:24:05;5.20;;;3.63;;
16957;SDS011;8595;52.542;11.974;2024-02-16T12:26:34;5.75;;;3.90;;
16957;SDS011;8595;52.542;11.974;2024-02-16T12:29:01;5.60;;;3.65;;
16957;SDS011;8595;52.542;11.974;2024-02-16T12:31:29;6.07;;;3.30;;
16957;SDS011;8595;52.542;11.974;2024-02-16T12:33:56;4.10;;;3.60;;
16957;SDS011;8595;52.542;11.974;2024-02-16T12:36:23;3.67;;;2.90;;
16957;SDS011;8595;52.542;11.974;2024-02-16T12:38:50;6.70;;;3.30;;
16957;SDS011;8595;52.542;11.974;2024-02-16T12:41:17;3.40;;;2.90;;
16957;SDS011;8595;52.542;11.974;2024-02-16T12:43:45;5.88;;;3.47;;
16957;SDS011;8595;52.542;11.974;2024-02-16T12:46:12;5.45;;;3.40;;
16957;SDS011;8595;52.542;11.974;2024-02-16T12:48:39;7.07;;;3.63;;
16957;SDS011;8595;52.542;11.974;2024-02-16T12:51:06;6.03;;;3.17;;
16957;SDS011;8595;52.542;11.974;2024-02-16T12:53:35;6.70;;;3.50;;
16957;SDS011;8595;52.542;11.974;2024-02-16T12:56:05;4.65;;;3.00;;
16957;SDS011;8595;52.542;11.974;2024-02-16T12:58:33;7.20;;;3.17;;
16957;SDS011;8595;52.542;11.974;2024-02-16T13:01:01;6.13;;;3.80;;
16957;SDS011;8595;52.542;11.974;2024-02-16T13:03:28;7.35;;;4.53;;
16957;SDS011;8595;52.542;11.974;2024-02-16T13:05:54;7.50;;;3.90;;
16957;SDS011;8595;52.542;11.974;2024-02-16T13:08:22;6.60;;;4.03;;
16957;SDS011;8595;52.542;11.974;2024-02-16T13:10:48;5.88;;;4.32;;
16957;SDS011;8595;52.542;11.974;2024-02-16T13:13:15;6.30;;;3.85;;
16957;SDS011;8595;52.542;11.974;2024-02-16T13:15:41;7.82;;;4.32;;
16957;SDS011;8595;52.542;11.974;2024-02-16T13:18:09;6.93;;;3.90;;
16957;SDS011;8595;52.542;11.974;2024-02-16T13:20:36;6.40;;;4.28;;
16957;SDS011;8595;52.542;11.974;2024-02-16T13:23:03;9.65;;;4.68;;
16957;SDS011;8595;52.542;11.974;2024-02-16T13:25:29;8.10;;;4.07;;
16957;SDS011;8595;52.542;11.974;2024-02-16T13:27:56;10.50;;;4.60;;
16957;SDS011;8595;52.542;11.974;2024-02-16T13:30:24;6.07;;;3.47;;
16957;SDS011;8595;52.542;11.974;2024-02-16T13:32:52;10.27;;;4.25;;
16957;SDS011;8595;52.542;11.974;2024-02-16T13:35:20;7.90;;;3.50;;
16957;SDS011;8595;52.542;11.974;2024-02-16T13:37:47;5.80;;;4.28;;
16957;SDS011;8595;52.542;11.974;2024-02-16T13:40:14;7.53;;;4.13;;
16957;SDS011;8595;52.542;11.974;2024-02-16T13:42:42;5.15;;;3.67;;
16957;SDS011;8595;52.542;11.974;2024-02-16T13:45:10;7.80;;;4.03;;
16957;SDS011;8595;52.542;11.974;2024-02-16T13:47:37;5.43;;;4.32;;
16957;SDS011;8595;52.542;11.974;2024-02-16T13:50:05;5.97;;;3.60;;
16957;SDS011;8595;52.542;11.974;2024-02-16T13:52:33;6.60;;;4.10;;
16957;SDS011;8595;52.542;11.974;2024-02-16T13:55:01;4.03;;;3.30;;
16957;SDS011;8595;52.542;11.974;2024-02-16T13:57:27;11.48;;;3.30;;
16957;SDS011;8595;52.542;11.974;2024-02-16T13:59:54;9.32;;;3.22;;
16957;SDS011;8595;52.542;11.974;2024-02-16T14:02:20;5.00;;;3.65;;
16957;SDS011;8595;52.542;11.974;2024-02-16T14:04:47;6.35;;;3.22;;
16957;SDS011;8595;52.542;11.974;2024-02-16T14:07:16;6.78;;;3.85;;
16957;SDS011;8595;52.542;11.974;2024-02-16T14:09:44;11.00;;;7.20;;
16957;SDS011;8595;52.542;11.974;2024-02-16T14:12:10;6.45;;;3.70;;
16957;SDS011;8595;52.542;11.974;2024-02-16T14:14:37;5.43;;;3.38;;
16957;SDS011;8595;52.542;11.974;2024-02-16T14:17:04;6.78;;;4.28;;
16957;SDS011;8595;52.542;11.974;2024-02-16T14:19:31;4.97;;;3.45;;
16957;SDS011;8595;52.542;11.974;2024-02-16T14:21:59;6.95;;;2.97;;
16957;SDS011;8595;52.542;11.974;2024-02-16T14:24:25;4.65;;;3.40;;
16957;SDS011;8595;52.542;11.974;2024-02-16T14:26:53;6.68;;;3.83;;
16957;SDS011;8595;52.542;11.974;2024-02-16T14:29:21;5.05;;;3.83;;
16957;SDS011;8595;52.542;11.974;2024-02-16T14:31:47;7.93;;;4.07;;
16957;SDS011;8595;52.542;11.974;2024-02-16T14:34:14;7.50;;;3.47;;
16957;SDS011;8595;52.542;11.974;2024-02-16T14:36:40;9.63;;;3.75;;
16957;SDS011;8595;52.542;11.974;2024-02-16T14:39:07;6.93;;;4.25;;
16957;SDS011;8595;52.542;11.974;2024-02-16T14:41:34;5.93;;;3.42;;
16957;SDS011;8595;52.542;11.974;2024-02-16T14:44:02;5.25;;;3.63;;
16957;SDS011;8595;52.542;11.974;2024-02-16T14:46:29;6.50;;;3.67;;